Currently 66°F in Murrieta, California, USA
66°F
68°F / 66°F
calm
0.00"
Thursday, August 16, 2018 3:32 AM PDT

Murrieta, California Weather Summary
Last 36 Hours

Temperature Winds Hourly Humidity Dewpoint
Time Report Norm Report Norm Max Gusts Precip. Rpt. Norm Rpt. Norm Pressure
1Thu 03:32 AM  66.3°F  63°F  calm  1 mph  none  0.00"  90%  84%  63°F  58°F  30.00"
3Thu 03:29 AM  66.2°F  63°F  calm  1 mph  none  ----  90%  83%  63°F  58°F  30.00"
Thu 03:00 AM  66.7°F  64°F  calm  1 mph  7 mph  0.00"  89%  83%  63°F  58°F  30.00"
Thu 02:00 AM  67.0°F  64°F  calm  1 mph  2 mph  0.00"  89%  82%  63°F  59°F  29.99"
Thu 01:00 AM  67.9°F  65°F  calm  2 mph  7 mph  0.00"  88%  80%  64°F  59°F  30.01"
2Thu 12:50 AM  68.0°F  66°F  calm  2 mph  none  ----  88%  80%  64°F  59°F  30.01"
Thu 12:00 AM  67.9°F  67°F  4 mph SW  2 mph  9 mph  0.00"  88%  79%  64°F  60°F  30.01"
Wed 11:00 PM  68.3°F  68°F  6 mph SW  3 mph  10 mph  0.00"  87%  78%  64°F  60°F  30.02"
Wed 10:00 PM  69.2°F  69°F  calm  4 mph  11 mph  0.00"  85%  77%  64°F  61°F  30.00"
Wed 09:00 PM  69.3°F  71°F  8 mph SW  6 mph  14 mph  0.00"  85%  75%  65°F  62°F  29.97"
Wed 08:00 PM  70.6°F  73°F  7 mph SW  8 mph  18 mph  0.00"  82%  69%  65°F  62°F  29.96"
Wed 07:00 PM  72.6°F  77°F  10 mph SW  9 mph  27 mph  0.00"  77%  58%  65°F  61°F  29.93"
Wed 06:00 PM  77.3°F  81°F  11 mph SW  11 mph  24 mph  0.00"  67%  48%  65°F  59°F  29.90"
Wed 05:00 PM  80.5°F  85°F  14 mph SW  12 mph  27 mph  0.00"  60%  42%  65°F  58°F  29.90"
Wed 04:00 PM  82.5°F  87°F  13 mph SW  12 mph  27 mph  0.00"  56%  38%  65°F  58°F  29.91"
Wed 03:00 PM  83.9°F  88°F  15 mph SW  12 mph  26 mph  0.00"  54%  37%  65°F  58°F  29.91"
Wed 02:00 PM  86.6°F  89°F  3 mph SW  11 mph  18 mph  0.00"  50%  36%  65°F  58°F  29.92"
Wed 01:00 PM  87.4°F  88°F  7 mph SW  10 mph  15 mph  0.00"  48%  37%  65°F  58°F  29.93"
Wed 12:00 PM  87.4°F  87°F  4 mph SE  7 mph  10 mph  0.00"  46%  39%  64°F  58°F  29.95"
Wed 11:00 AM  82.9°F  83°F  2 mph S  4 mph  9 mph  0.00"  54%  47%  64°F  60°F  29.96"
Wed 10:00 AM  78.7°F  79°F  2 mph S  3 mph  7 mph  0.00"  62%  58%  64°F  62°F  29.97"
Wed 09:00 AM  75.5°F  73°F  calm  1 mph  none  0.00"  69%  71%  64°F  63°F  29.98"
Wed 08:00 AM  70.5°F  68°F  calm  calm  6 mph  0.00"  82%  80%  64°F  62°F  29.97"
Wed 07:00 AM  64.6°F  63°F  1 mph S  1 mph  4 mph  0.00"  93%  85%  63°F  58°F  29.96"
Wed 06:00 AM  62.9°F  62°F  calm  1 mph  none  0.00"  94%  86%  61°F  57°F  29.94"
Wed 05:00 AM  63.2°F  62°F  calm  1 mph  none  0.00"  93%  85%  61°F  58°F  29.93"
Wed 04:00 AM  63.4°F  63°F  calm  1 mph  none  0.00"  95%  84%  62°F  58°F  29.93"
Wed 03:00 AM  64.2°F  64°F  calm  1 mph  none  0.00"  95%  83%  63°F  58°F  29.93"
Wed 02:00 AM  64.7°F  64°F  calm  1 mph  11 mph  0.00"  96%  82%  63°F  59°F  29.94"
Wed 01:00 AM  65.1°F  65°F  6 mph SW  2 mph  11 mph  0.00"  95%  80%  64°F  59°F  29.95"
Wed 12:00 AM  67.2°F  67°F  calm  2 mph  none  0.00"  88%  79%  63°F  60°F  29.95"
Tue 11:00 PM  67.3°F  68°F  calm  3 mph  11 mph  0.00"  89%  78%  64°F  60°F  29.94"
Tue 10:00 PM  67.8°F  69°F  8 mph SW  4 mph  14 mph  0.00"  88%  77%  64°F  61°F  29.94"
Tue 09:00 PM  69.1°F  71°F  8 mph SW  6 mph  15 mph  0.00"  84%  75%  64°F  62°F  29.91"
Tue 08:00 PM  72.3°F  73°F  8 mph SW  9 mph  20 mph  0.00"  76%  69%  64°F  62°F  29.89"
Tue 07:00 PM  75.9°F  77°F  10 mph SW  9 mph  22 mph  0.00"  68%  58%  64°F  61°F  29.87"
Tue 06:00 PM  79.0°F  81°F  14 mph SW  11 mph  24 mph  0.00"  61%  48%  64°F  59°F  29.86"
Tue 05:00 PM  82.0°F  85°F  calm  12 mph  25 mph  0.00"  53%  42%  63°F  58°F  29.86"
Tue 04:00 PM  85.1°F  87°F  5 mph SW  13 mph  23 mph  0.00"  48%  38%  62°F  57°F  29.87"

  1. Current weather data. No green row appears if the current weather data is also the high or low for the current day.
  2. High temperature for the current day.
  3. Low temperature for the current day.

The Murrieta weather pages are a service of WeatherCurrents. Murrieta, California is located in the Temecula Valley, in southwestern Riverside County, at the junctions of the Interstate 15 and 215 highways.
Copyright ©Thu Aug 16 03:33:01 PDT 2018  WeatherCurrents. All rights reserved. - Submit questions and comments - Privacy Policy

This page automatically refreshes every 10 minutes.